createdAt,value
2023-05-19T00:00:28.776Z,9.86
2023-05-19T00:03:31.899Z,9.84
2023-05-19T00:06:34.440Z,9.83
2023-05-19T00:09:36.815Z,9.86
2023-05-19T00:12:38.841Z,9.89
2023-05-19T00:15:41.241Z,9.85
2023-05-19T00:18:43.645Z,9.89
2023-05-19T00:21:45.689Z,9.89
2023-05-19T00:24:47.661Z,9.92
2023-05-19T00:27:49.546Z,9.93
2023-05-19T00:30:52.015Z,9.93
2023-05-19T00:33:54.006Z,9.94
2023-05-19T00:36:55.964Z,9.96
2023-05-19T00:39:59.267Z,9.96
2023-05-19T00:43:01.339Z,9.98
2023-05-19T00:46:03.875Z,9.99
2023-05-19T00:49:05.865Z,9.98
2023-05-19T00:52:07.898Z,9.96
2023-05-19T00:55:10.690Z,9.97
2023-05-19T00:58:14.069Z,9.98
2023-05-19T01:01:17.206Z,9.99
2023-05-19T01:04:21.780Z,10.01
2023-05-19T01:07:23.910Z,10.00
2023-05-19T01:10:25.890Z,9.98
2023-05-19T01:13:28.901Z,9.96
2023-05-19T01:16:37.700Z,9.97
2023-05-19T01:20:11.186Z,9.98
2023-05-19T01:23:24.081Z,9.98
2023-05-19T01:26:44.754Z,9.98
2023-05-19T01:29:49.772Z,9.99
2023-05-19T01:32:56.527Z,9.93
2023-05-19T01:35:59.853Z,9.97
2023-05-19T01:39:02.556Z,9.97
2023-05-19T01:42:04.943Z,9.98
2023-05-19T01:45:11.412Z,9.98
2023-05-19T01:48:14.982Z,9.97
2023-05-19T01:51:17.216Z,9.97
2023-05-19T01:54:19.241Z,9.97
2023-05-19T01:57:51.981Z,9.94
2023-05-19T02:01:16.709Z,9.97
2023-05-19T02:04:40.397Z,9.96
2023-05-19T02:07:51.036Z,9.96
2023-05-19T02:11:11.794Z,9.97
2023-05-19T02:14:25.081Z,9.97
2023-05-19T02:17:33.302Z,9.97
2023-05-19T02:20:35.436Z,9.98
2023-05-19T02:23:37.522Z,9.99
2023-05-19T02:26:39.419Z,9.95
2023-05-19T02:29:41.576Z,9.98
2023-05-19T02:32:46.919Z,9.99
2023-05-19T02:35:49.156Z,9.97
2023-05-19T02:38:51.368Z,9.97
2023-05-19T02:41:53.476Z,9.93
2023-05-19T02:44:55.557Z,9.97
2023-05-19T02:47:57.586Z,9.98
2023-05-19T02:50:59.558Z,9.99
2023-05-19T02:54:01.536Z,10.01
2023-05-19T02:57:03.740Z,9.99
2023-05-19T03:00:06.960Z,9.94
2023-05-19T03:03:10.556Z,9.85
2023-05-19T03:06:13.328Z,9.74
2023-05-19T03:09:15.345Z,9.67
2023-05-19T03:12:17.322Z,9.64
2023-05-19T03:15:19.477Z,9.66
2023-05-19T03:18:21.551Z,9.66
2023-05-19T03:21:23.785Z,9.66
2023-05-19T03:24:25.956Z,9.66
2023-05-19T03:27:27.950Z,9.69
2023-05-19T03:30:30.157Z,9.67
2023-05-19T03:33:32.346Z,9.70
2023-05-19T03:36:40.037Z,9.68
2023-05-19T03:39:42.151Z,9.71
2023-05-19T03:42:44.125Z,9.69
2023-05-19T03:45:46.424Z,9.68
2023-05-19T03:48:48.480Z,9.70
2023-05-19T03:51:50.624Z,9.75
2023-05-19T03:54:53.120Z,9.72
2023-05-19T03:57:55.076Z,9.72
2023-05-19T04:00:57.135Z,9.67
2023-05-19T04:03:59.206Z,9.73
2023-05-19T04:07:01.397Z,9.72
2023-05-19T04:10:06.914Z,9.70
2023-05-19T04:13:09.130Z,9.75
2023-05-19T04:16:11.393Z,9.73
2023-05-19T04:19:13.461Z,9.83
2023-05-19T04:22:15.523Z,9.79
2023-05-19T04:25:17.524Z,9.75
2023-05-19T04:28:19.499Z,9.85
2023-05-19T04:31:21.919Z,9.80
2023-05-19T04:34:23.922Z,9.82
2023-05-19T04:37:26.557Z,9.83
2023-05-19T04:40:31.499Z,9.78
2023-05-19T04:43:34.430Z,9.90
2023-05-19T04:46:36.667Z,9.96
2023-05-19T04:49:39.096Z,10.00
2023-05-19T04:52:42.601Z,10.04
2023-05-19T04:55:45.413Z,10.00
2023-05-19T04:58:47.401Z,9.94
2023-05-19T05:01:49.342Z,10.00
2023-05-19T05:04:51.344Z,10.02
2023-05-19T05:07:54.278Z,10.09
2023-05-19T05:10:56.622Z,10.18
2023-05-19T05:13:58.791Z,10.24
2023-05-19T05:17:01.673Z,10.28
2023-05-19T05:20:06.250Z,10.30
2023-05-19T05:23:09.768Z,10.39
2023-05-19T05:26:19.584Z,10.55
2023-05-19T05:29:21.607Z,10.66
2023-05-19T05:32:23.884Z,10.71
2023-05-19T05:35:26.370Z,10.76
2023-05-19T05:38:28.417Z,10.83
2023-05-19T05:41:35.328Z,10.89
2023-05-19T05:44:37.610Z,10.97
2023-05-19T05:47:41.534Z,11.01
2023-05-19T05:50:44.761Z,11.16
2023-05-19T05:53:52.515Z,11.22
2023-05-19T05:56:54.789Z,11.28
2023-05-19T05:59:57.425Z,11.26
2023-05-19T06:02:59.602Z,11.27
2023-05-19T06:06:02.053Z,11.23
2023-05-19T06:09:04.872Z,11.44
2023-05-19T06:12:07.180Z,11.46
2023-05-19T06:15:09.282Z,11.64
2023-05-19T06:18:11.315Z,11.88
2023-05-19T06:21:13.706Z,11.93
2023-05-19T06:24:15.717Z,12.04
2023-05-19T06:27:17.673Z,12.01
2023-05-19T06:30:19.698Z,12.12
2023-05-19T06:33:21.758Z,12.13
2023-05-19T06:36:23.724Z,11.80
2023-05-19T06:39:26.397Z,11.71
2023-05-19T06:42:28.419Z,11.73
2023-05-19T06:45:30.572Z,11.77
2023-05-19T06:48:32.566Z,11.94
2023-05-19T06:51:35.476Z,12.05
2023-05-19T06:54:37.543Z,11.99
2023-05-19T06:57:39.510Z,12.17
2023-05-19T07:00:41.484Z,12.12
2023-05-19T07:03:43.602Z,11.98
2023-05-19T07:06:45.662Z,11.88
2023-05-19T07:09:47.651Z,11.98
2023-05-19T07:12:49.698Z,12.09
2023-05-19T07:15:55.915Z,12.06
2023-05-19T07:18:58.075Z,12.22
2023-05-19T07:22:00.093Z,12.31
2023-05-19T07:25:02.181Z,12.58
2023-05-19T07:28:04.314Z,12.56
2023-05-19T07:31:06.714Z,12.26
2023-05-19T07:34:08.968Z,12.47
2023-05-19T07:37:10.962Z,12.55
2023-05-19T07:40:13.268Z,12.70
2023-05-19T07:43:15.279Z,12.91
2023-05-19T07:46:17.558Z,13.00
2023-05-19T07:49:19.593Z,13.06
2023-05-19T07:52:21.607Z,13.36
2023-05-19T07:55:23.570Z,13.49
2023-05-19T07:58:25.546Z,13.54
2023-05-19T08:01:28.390Z,13.59
2023-05-19T08:04:30.344Z,13.66
2023-05-19T08:07:32.438Z,13.71
2023-05-19T08:10:34.738Z,13.80
2023-05-19T08:13:36.937Z,13.78
2023-05-19T08:16:39.013Z,13.83
2023-05-19T08:19:41.020Z,13.84
2023-05-19T08:22:43.146Z,13.91
2023-05-19T08:25:45.735Z,14.12
2023-05-19T08:28:47.728Z,14.18
2023-05-19T08:31:49.690Z,14.30
2023-05-19T08:34:51.723Z,14.46
2023-05-19T08:37:53.722Z,14.26
2023-05-19T08:40:58.142Z,14.50
2023-05-19T08:44:00.235Z,14.31
2023-05-19T08:47:05.497Z,14.31
2023-05-19T08:50:10.799Z,14.39
2023-05-19T08:53:33.271Z,14.27
2023-05-19T08:56:36.848Z,14.61
2023-05-19T08:59:40.006Z,14.39
2023-05-19T09:02:50.644Z,14.32
2023-05-19T09:06:04.461Z,14.50
2023-05-19T09:09:07.235Z,14.90
2023-05-19T09:12:13.920Z,15.23
2023-05-19T09:15:19.387Z,14.93
2023-05-19T09:18:21.436Z,15.21
2023-05-19T09:21:31.399Z,15.72
2023-05-19T09:24:34.640Z,15.56
2023-05-19T09:27:36.696Z,15.50
2023-05-19T09:30:39.493Z,16.25
2023-05-19T09:33:45.637Z,16.32
2023-05-19T09:36:54.805Z,16.23
2023-05-19T09:39:57.320Z,17.06
2023-05-19T09:42:59.366Z,16.88
2023-05-19T09:46:08.370Z,17.04
2023-05-19T09:49:10.567Z,17.14
2023-05-19T09:52:16.417Z,17.62
2023-05-19T09:55:20.237Z,17.43
2023-05-19T09:58:24.350Z,17.64
2023-05-19T10:01:26.817Z,17.32
2023-05-19T10:04:30.615Z,17.54
2023-05-19T10:07:33.849Z,17.77
2023-05-19T10:10:37.542Z,17.67
2023-05-19T10:13:40.194Z,17.92
2023-05-19T10:16:42.505Z,18.09
2023-05-19T10:19:45.363Z,18.21
2023-05-19T10:22:47.983Z,19.26
2023-05-19T10:25:53.085Z,20.06
2023-05-19T10:28:56.828Z,19.04
2023-05-19T10:32:04.393Z,17.97
2023-05-19T10:35:27.711Z,17.54
2023-05-19T10:38:48.387Z,18.19
2023-05-19T10:42:16.126Z,18.37
2023-05-19T10:45:22.509Z,19.54
2023-05-19T10:48:24.712Z,19.63
2023-05-19T10:51:34.072Z,19.04
2023-05-19T10:54:46.405Z,18.92
2023-05-19T10:57:57.109Z,18.82
2023-05-19T11:01:01.075Z,19.22
2023-05-19T11:04:09.207Z,19.69
2023-05-19T11:07:15.702Z,19.39
2023-05-19T11:10:23.767Z,19.26
2023-05-19T11:13:28.518Z,19.51
2023-05-19T11:16:32.761Z,19.89
2023-05-19T11:19:36.069Z,19.88
2023-05-19T11:22:38.997Z,19.66
2023-05-19T11:25:42.644Z,19.82
2023-05-19T11:28:45.612Z,19.94
2023-05-19T11:31:48.871Z,19.76
2023-05-19T11:34:51.592Z,19.33
2023-05-19T11:37:54.983Z,19.41
2023-05-19T11:40:57.649Z,18.83
2023-05-19T11:43:59.648Z,18.27
2023-05-19T11:47:02.216Z,18.08
2023-05-19T11:50:05.100Z,18.15
2023-05-19T11:53:08.345Z,18.59
2023-05-19T11:56:12.187Z,18.76
2023-05-19T11:59:14.275Z,18.58
2023-05-19T12:02:21.192Z,18.42
2023-05-19T12:05:26.130Z,18.59
2023-05-19T12:08:29.669Z,18.13
2023-05-19T12:11:31.997Z,18.29
2023-05-19T12:14:34.663Z,18.20
2023-05-19T12:17:36.694Z,18.16
2023-05-19T12:20:39.356Z,18.09
2023-05-19T12:23:42.544Z,18.37
2023-05-19T12:26:44.510Z,18.48
2023-05-19T12:29:53.990Z,18.32
2023-05-19T12:32:57.911Z,19.08
2023-05-19T12:36:00.226Z,19.21
2023-05-19T12:39:04.915Z,19.95
2023-05-19T12:42:11.588Z,19.17
2023-05-19T12:45:13.604Z,19.16
2023-05-19T12:48:16.207Z,19.13
2023-05-19T12:51:20.071Z,19.51
2023-05-19T12:54:22.687Z,19.88
2023-05-19T12:57:26.231Z,20.32
2023-05-19T13:00:31.280Z,20.30
2023-05-19T13:03:33.440Z,19.72
2023-05-19T13:06:35.477Z,19.28
2023-05-19T13:09:38.510Z,19.31
2023-05-19T13:12:40.432Z,19.30
2023-05-19T13:15:48.868Z,19.26
2023-05-19T13:18:51.597Z,19.16
2023-05-19T13:21:53.618Z,18.97
2023-05-19T13:24:58.932Z,19.37
2023-05-19T13:28:03.993Z,19.39
2023-05-19T13:31:06.056Z,18.93
2023-05-19T13:34:08.160Z,18.77
2023-05-19T13:37:11.592Z,18.75
2023-05-19T13:40:13.886Z,18.59
2023-05-19T13:43:15.858Z,18.39
2023-05-19T13:46:19.250Z,18.43
2023-05-19T13:49:24.146Z,18.40
2023-05-19T13:52:27.505Z,18.29
2023-05-19T13:55:30.933Z,18.24
2023-05-19T13:58:33.003Z,18.34
2023-05-19T14:01:35.098Z,18.41
2023-05-19T14:04:38.625Z,18.66
2023-05-19T14:07:40.623Z,18.83
2023-05-19T14:10:43.494Z,18.83
2023-05-19T14:13:46.278Z,18.90
2023-05-19T14:16:48.443Z,18.88
2023-05-19T14:19:50.358Z,19.11
2023-05-19T14:22:52.399Z,18.99
2023-05-19T14:25:54.415Z,19.07
2023-05-19T14:28:57.211Z,19.10
2023-05-19T14:31:59.260Z,19.28
2023-05-19T14:35:01.556Z,19.13
2023-05-19T14:38:03.652Z,19.29
2023-05-19T14:41:06.956Z,19.27
2023-05-19T14:44:08.971Z,19.36
2023-05-19T14:47:12.572Z,19.38
2023-05-19T14:50:14.758Z,18.96
2023-05-19T14:53:17.052Z,18.87
2023-05-19T14:56:19.066Z,18.93
2023-05-19T14:59:21.819Z,18.92
2023-05-19T15:02:23.887Z,18.89
2023-05-19T15:05:26.074Z,18.98
2023-05-19T15:08:28.010Z,19.10
2023-05-19T15:11:30.335Z,19.01
2023-05-19T15:14:32.278Z,18.98
2023-05-19T15:17:34.305Z,19.02
2023-05-19T15:20:36.427Z,18.94
2023-05-19T15:23:38.628Z,18.74
2023-05-19T15:26:40.620Z,18.75
2023-05-19T15:29:42.712Z,18.69
2023-05-19T15:32:44.704Z,18.71
2023-05-19T15:35:47.822Z,18.68
2023-05-19T15:38:49.821Z,18.63
2023-05-19T15:41:51.917Z,18.71
2023-05-19T15:44:53.971Z,18.66
2023-05-19T15:47:56.229Z,18.64
2023-05-19T15:50:59.198Z,18.64
2023-05-19T15:54:01.177Z,18.61
2023-05-19T15:57:03.139Z,18.65
2023-05-19T16:00:05.628Z,18.75
2023-05-19T16:03:08.005Z,18.75
2023-05-19T16:06:10.070Z,18.66
2023-05-19T16:09:12.161Z,18.65
2023-05-19T16:12:14.445Z,18.59
2023-05-19T16:15:16.538Z,18.46
2023-05-19T16:18:18.767Z,18.40
2023-05-19T16:21:21.538Z,18.39
2023-05-19T16:24:23.485Z,18.44
2023-05-19T16:27:25.597Z,18.38
2023-05-19T16:30:28.165Z,18.31
2023-05-19T16:33:30.229Z,18.23
2023-05-19T16:36:32.568Z,18.23
2023-05-19T16:39:37.308Z,18.10
2023-05-19T16:42:39.567Z,18.12
2023-05-19T16:45:41.625Z,18.05
2023-05-19T16:48:43.898Z,18.03
2023-05-19T16:51:47.555Z,17.91
2023-05-19T16:54:50.969Z,17.88
2023-05-19T16:57:53.070Z,17.81
2023-05-19T17:00:55.309Z,17.72
2023-05-19T17:03:57.427Z,17.67
2023-05-19T17:06:59.446Z,17.65
2023-05-19T17:10:01.431Z,17.67
2023-05-19T17:13:03.343Z,17.64
2023-05-19T17:16:05.672Z,17.61
2023-05-19T17:19:07.726Z,17.53
2023-05-19T17:22:09.804Z,17.46
2023-05-19T17:25:11.868Z,17.37
2023-05-19T17:28:13.934Z,17.26
2023-05-19T17:31:15.985Z,17.18
2023-05-19T17:34:17.964Z,17.08
2023-05-19T17:37:23.495Z,17.01
2023-05-19T17:40:25.576Z,16.93
2023-05-19T17:43:27.715Z,16.83
2023-05-19T17:46:34.722Z,16.76
2023-05-19T17:49:36.843Z,16.67
2023-05-19T17:52:40.574Z,16.55
2023-05-19T17:56:02.264Z,16.46
2023-05-19T17:59:04.593Z,16.36
2023-05-19T18:02:07.907Z,16.28
2023-05-19T18:05:10.737Z,16.21
2023-05-19T18:08:13.690Z,16.12
2023-05-19T18:11:16.624Z,16.00
2023-05-19T18:14:18.657Z,15.90
2023-05-19T18:17:20.679Z,15.81
2023-05-19T18:20:22.659Z,15.67
2023-05-19T18:23:24.703Z,15.53
2023-05-19T18:26:26.756Z,15.46
2023-05-19T18:29:28.712Z,15.43
2023-05-19T18:32:30.752Z,15.40
2023-05-19T18:35:32.974Z,15.36
2023-05-19T18:38:35.080Z,15.30
2023-05-19T18:41:37.789Z,15.25
2023-05-19T18:44:39.954Z,15.17
2023-05-19T18:47:42.150Z,15.10
2023-05-19T18:50:44.801Z,15.04
2023-05-19T18:53:49.495Z,14.98
2023-05-19T18:56:51.553Z,14.91
2023-05-19T18:59:53.751Z,14.82
2023-05-19T19:02:55.787Z,14.78
2023-05-19T19:05:59.169Z,14.69
2023-05-19T19:09:01.132Z,14.67
2023-05-19T19:12:04.642Z,14.63
2023-05-19T19:15:07.218Z,14.63
2023-05-19T19:18:09.438Z,14.64
2023-05-19T19:21:11.533Z,14.61
2023-05-19T19:24:13.864Z,14.57
2023-05-19T19:27:20.944Z,14.51
2023-05-19T19:30:22.962Z,14.43
2023-05-19T19:33:25.054Z,14.34
2023-05-19T19:36:27.165Z,14.24
2023-05-19T19:39:29.210Z,14.16
2023-05-19T19:42:31.945Z,14.10
2023-05-19T19:45:34.990Z,14.05
2023-05-19T19:48:37.065Z,13.98
2023-05-19T19:51:38.967Z,13.86
2023-05-19T19:54:41.057Z,13.81
2023-05-19T19:57:45.708Z,13.69
2023-05-19T20:00:47.721Z,13.62
2023-05-19T20:03:49.917Z,13.58
2023-05-19T20:06:51.996Z,13.53
2023-05-19T20:09:55.967Z,13.46
2023-05-19T20:12:59.339Z,13.43
2023-05-19T20:16:01.566Z,13.37
2023-05-19T20:19:04.095Z,13.31
2023-05-19T20:22:06.599Z,13.28
2023-05-19T20:25:09.083Z,13.22
2023-05-19T20:28:11.029Z,13.19
2023-05-19T20:31:13.008Z,13.15
2023-05-19T20:34:15.031Z,13.19
2023-05-19T20:37:17.520Z,13.21
2023-05-19T20:40:19.452Z,13.21
2023-05-19T20:43:21.543Z,13.20
2023-05-19T20:46:23.581Z,13.17
2023-05-19T20:49:25.529Z,13.15
2023-05-19T20:52:27.583Z,13.12
2023-05-19T20:55:29.619Z,13.07
2023-05-19T20:58:32.174Z,13.02
2023-05-19T21:01:34.268Z,13.02
2023-05-19T21:04:36.520Z,13.03
2023-05-19T21:07:38.533Z,13.09
2023-05-19T21:10:41.062Z,13.12
2023-05-19T21:13:43.504Z,13.12
2023-05-19T21:16:48.971Z,13.12
2023-05-19T21:19:52.820Z,13.13
2023-05-19T21:22:55.700Z,13.12
2023-05-19T21:25:58.873Z,13.13
2023-05-19T21:29:00.873Z,13.12
2023-05-19T21:32:02.885Z,13.13
2023-05-19T21:35:06.215Z,13.12
2023-05-19T21:38:21.962Z,13.09
2023-05-19T21:41:25.213Z,13.09
2023-05-19T21:44:27.300Z,13.08
2023-05-19T21:47:29.265Z,13.13
2023-05-19T21:50:31.392Z,13.12
2023-05-19T21:53:33.554Z,13.12
2023-05-19T21:56:35.630Z,13.10
2023-05-19T21:59:37.745Z,13.12
2023-05-19T22:02:40.581Z,13.12
2023-05-19T22:05:42.590Z,13.08
2023-05-19T22:08:44.626Z,13.16
2023-05-19T22:11:46.541Z,13.18
2023-05-19T22:14:48.581Z,13.17
2023-05-19T22:17:50.711Z,13.16
2023-05-19T22:20:52.696Z,13.16
2023-05-19T22:23:54.788Z,13.13
2023-05-19T22:26:56.798Z,13.11
2023-05-19T22:29:59.894Z,13.10
2023-05-19T22:33:02.358Z,13.13
2023-05-19T22:36:04.472Z,13.16
2023-05-19T22:39:06.507Z,13.23
2023-05-19T22:42:08.617Z,13.26
2023-05-19T22:45:10.936Z,13.26
2023-05-19T22:48:12.954Z,13.25
2023-05-19T22:51:14.967Z,13.25
2023-05-19T22:54:16.978Z,13.22
2023-05-19T22:57:19.481Z,13.22
2023-05-19T23:00:21.398Z,13.21
2023-05-19T23:03:23.435Z,13.18
2023-05-19T23:06:25.386Z,13.14
2023-05-19T23:09:27.618Z,13.07
2023-05-19T23:12:29.601Z,13.00
2023-05-19T23:15:31.769Z,12.94
2023-05-19T23:18:33.819Z,12.88
2023-05-19T23:21:36.196Z,12.84
2023-05-19T23:24:38.090Z,12.77
2023-05-19T23:27:40.311Z,12.70
2023-05-19T23:30:42.337Z,12.62
2023-05-19T23:33:44.253Z,12.56
2023-05-19T23:36:46.504Z,12.50
2023-05-19T23:39:48.549Z,12.41
2023-05-19T23:42:50.517Z,12.34
2023-05-19T23:45:52.504Z,12.27
2023-05-19T23:48:54.429Z,12.27
2023-05-19T23:51:56.506Z,12.25
2023-05-19T23:54:58.465Z,12.21
2023-05-19T23:58:00.723Z,12.20
